Tim S. Dool — VGPY — position and weather

sailwx.info

Track history (hours):
 
Tides and Currents Weather Stations Pressure Air Temp Water Temp Dewpoint Dewpoint Depression Visibility Wind Speed Wind Dir Waves Ship Positions

Tim S. Dool

Last reported at 2014-Dec-30 20:34 UTC. Time now 2015-Mar-01 04:27 UTC.
Position N 43°59' W 076°33'.
Warning: this ship's position is months out of date.

Length 223 m; draft 8.1 m.

Type: Cargo ship. MMSI: 316001696.

Date/timePositionNaut miles runAvg speedWind from/ knotsBaromVisibWave heightAir tempDewpointWater temp
2014-Dec-30 20:34N 43°59' W 076°33'5 4.5
2014-Dec-30 19:33N 44°01' W 076°28'1312.8
2014-Dec-30 18:33N 44°12' W 076°18'73 8.5
2014-Dec-30 10:00N 44°54' W 074°54'34 5.9 280 / 51096.710.8 -23.8
2014-Dec-30 04:09N 45°14' W 074°14'5 8.9
2014-Dec-30 03:33N 45°13' W 074°07'8 8.1
2014-Dec-30 02:33N 45°17' W 073°56'2 2.1
2014-Dec-30 01:33N 45°19' W 073°55'1 1.5
2014-Dec-30 00:33N 45°20' W 073°54'3 2.9
2014-Dec-29 23:33N 45°22' W 073°50'6 6.2
2014-Dec-29 22:33N 45°25' W 073°43'4 4.3
2014-Dec-29 21:33N 45°24' W 073°36'2 2.3
2014-Dec-29 20:33N 45°24' W 073°33'4 3.2
2014-Dec-29 19:13N 45°28' W 073°30'42 7.2
2014-Dec-29 13:21N 46°05' W 073°00'910.8
2014-Dec-29 12:33N 46°12' W 072°53'1111.3
2014-Dec-29 11:33N 46°16' W 072°38'7 7.5
2014-Dec-29 10:33N 46°22' W 072°30'10 9.6
2014-Dec-29 09:33N 46°26' W 072°18'  
2014-Dec-25 05:08N 46°34' W 072°07'912.0
2014-Dec-25 04:23N 46°27' W 072°16'1011.8
2014-Dec-25 03:33N 46°23' W 072°28'9 9.4
2014-Dec-25 02:33N 46°16' W 072°38'59 9.4
2014-Dec-24 20:17N 45°30' W 073°31'2 3.4
2014-Dec-24 19:33N 45°27' W 073°30'4 3.5
2014-Dec-24 18:29N 45°24' W 073°34'2 1.8
2014-Dec-24 17:22N 45°24' W 073°37'4 5.2
2014-Dec-24 16:33N 45°25' W 073°43'8 7.5
2014-Dec-24 15:33N 45°21' W 073°52'3 2.8
2014-Dec-24 14:33N 45°19' W 073°55'1 1.1
2014-Dec-24 13:33N 45°18' W 073°56'4 3.6
2014-Dec-24 12:29N 45°15' W 073°59'119 8.0
2014-Dec-23 21:34N 44°10' W 076°19'3 3.2
2014-Dec-23 20:34N 44°07' W 076°22'2717.3
2014-Dec-23 19:00N 43°48' W 076°48'171 6.6 110 / 151011.010.8 1.0 7.0
2014-Dec-22 17:00N 42°24' W 080°12'13612.4 130 / 41016.010.8 0.5 3.0
2014-Dec-22 06:00N 41°42' W 083°06'25411.0 120 / 111019.0 2.2 0.5-1.0
2014-Dec-21 07:00N 45°54' W 083°48'5 9.0 070 / 51021.010.8 0.5-3.0
2014-Dec-21 06:26N 45°57' W 083°54'9 9.7
2014-Dec-21 05:32N 46°04' W 084°01'12 8.6
2014-Dec-21 04:12N 46°14' W 084°10'7 6.5
2014-Dec-21 03:05N 46°21' W 084°13'13 3.6
2014-Dec-20 23:31N 46°28' W 084°28'  
Track history (hours):
 
Tides and Currents Weather Stations Pressure Air Temp Water Temp Dewpoint Dewpoint Depression Visibility Wind Speed Wind Dir Waves Ship Positions

Tim S. Dool

Last reported at 2014-Dec-30 20:34 UTC. Time now 2015-Mar-01 04:27 UTC.
Position N 43°59' W 076°33'.
Warning: this ship's position is months out of date.

Length 223 m; draft 8.1 m.

Type: Cargo ship. MMSI: 316001696.

Date/timePositionNaut miles runAvg speedWind from/ knotsBaromVisibWave heightAir tempDewpointWater temp
2014-Dec-30 20:34N 43°59' W 076°33'5 4.5
2014-Dec-30 19:33N 44°01' W 076°28'1312.8
2014-Dec-30 18:33N 44°12' W 076°18'73 8.5
2014-Dec-30 10:00N 44°54' W 074°54'34 5.9 280 / 51096.710.8 -23.8
2014-Dec-30 04:09N 45°14' W 074°14'5 8.9
2014-Dec-30 03:33N 45°13' W 074°07'8 8.1
2014-Dec-30 02:33N 45°17' W 073°56'2 2.1
2014-Dec-30 01:33N 45°19' W 073°55'1 1.5
2014-Dec-30 00:33N 45°20' W 073°54'3 2.9
2014-Dec-29 23:33N 45°22' W 073°50'6 6.2
2014-Dec-29 22:33N 45°25' W 073°43'4 4.3
2014-Dec-29 21:33N 45°24' W 073°36'2 2.3
2014-Dec-29 20:33N 45°24' W 073°33'4 3.2
2014-Dec-29 19:13N 45°28' W 073°30'42 7.2
2014-Dec-29 13:21N 46°05' W 073°00'910.8
2014-Dec-29 12:33N 46°12' W 072°53'1111.3
2014-Dec-29 11:33N 46°16' W 072°38'7 7.5
2014-Dec-29 10:33N 46°22' W 072°30'10 9.6
2014-Dec-29 09:33N 46°26' W 072°18'  
2014-Dec-25 05:08N 46°34' W 072°07'912.0
2014-Dec-25 04:23N 46°27' W 072°16'1011.8
2014-Dec-25 03:33N 46°23' W 072°28'9 9.4
2014-Dec-25 02:33N 46°16' W 072°38'59 9.4
2014-Dec-24 20:17N 45°30' W 073°31'2 3.4
2014-Dec-24 19:33N 45°27' W 073°30'4 3.5
2014-Dec-24 18:29N 45°24' W 073°34'2 1.8
2014-Dec-24 17:22N 45°24' W 073°37'4 5.2
2014-Dec-24 16:33N 45°25' W 073°43'8 7.5
2014-Dec-24 15:33N 45°21' W 073°52'3 2.8
2014-Dec-24 14:33N 45°19' W 073°55'1 1.1
2014-Dec-24 13:33N 45°18' W 073°56'4 3.6
2014-Dec-24 12:29N 45°15' W 073°59'119 8.0
2014-Dec-23 21:34N 44°10' W 076°19'3 3.2
2014-Dec-23 20:34N 44°07' W 076°22'2717.3
2014-Dec-23 19:00N 43°48' W 076°48'171 6.6 110 / 151011.010.8 1.0 7.0
2014-Dec-22 17:00N 42°24' W 080°12'13612.4 130 / 41016.010.8 0.5 3.0
2014-Dec-22 06:00N 41°42' W 083°06'25411.0 120 / 111019.0 2.2 0.5-1.0
2014-Dec-21 07:00N 45°54' W 083°48'5 9.0 070 / 51021.010.8 0.5-3.0
2014-Dec-21 06:26N 45°57' W 083°54'9 9.7
2014-Dec-21 05:32N 46°04' W 084°01'12 8.6
2014-Dec-21 04:12N 46°14' W 084°10'7 6.5
2014-Dec-21 03:05N 46°21' W 084°13'13 3.6
2014-Dec-20 23:31N 46°28' W 084°28'  

Dump ship's entire track history